Time;durP1;ratioP1;P1;durP2;ratioP2;P2;SDS_P1;SDS_P2;PMS_P1;PMS_P2;Temp;Humidity;BMP_temperature;BMP_pressure;BME280_temperature;BME280_humidity;BME280_pressure;Samples;Min_cycle;Max_cycle;Signal;HPM_P1;HPM_P2
2023/09/11 00:01:52;;;;;;;;;;;;;;;23.27;38.12;99119.53;5048031;28;19913;-86
2023/09/11 00:04:17;;;;;;;;;;;;;;;23.25;38.11;99115.44;5044869;28;20367;-87
2023/09/11 00:06:43;;;;;;;;;;;;;;;23.20;38.23;99116.00;5016417;28;19917;-87
2023/09/11 00:09:08;;;;;;;;;;;;;;;23.17;38.42;99116.38;5016572;28;19913;-86
2023/09/11 00:11:33;;;;;;;;;;;;;;;23.14;38.26;99105.28;5033920;28;19913;-86
2023/09/11 00:13:59;;;;;;;;;;;;;;;23.11;38.41;99114.47;5016556;28;19919;-86
2023/09/11 00:16:24;;;;;;;;;;;;;;;23.09;38.33;99111.16;5032962;28;19920;-85
2023/09/11 00:18:49;;;;;;;;;;;;;;;23.08;38.72;99107.66;5016312;28;19913;-86
2023/09/11 00:21:14;;;;;;;;;;;;;;;23.10;38.37;99112.81;5033969;28;19971;-85
2023/09/11 00:23:40;;;;;;;;;;;;;;;23.11;38.49;99111.78;5015972;28;19992;-85
2023/09/11 00:26:05;;;;;;;;;;;;;;;23.12;38.42;99103.63;5032646;28;19932;-85
2023/09/11 00:28:30;;;;;;;;;;;;;;;23.12;38.65;99098.28;5034111;28;20394;-86
2023/09/11 00:30:59;;;;;;;;;;;;;;;23.11;38.72;99106.47;5033967;28;19963;-85
2023/09/11 00:33:25;;;;;;;;;;;;;;;23.10;38.55;99105.66;5032925;28;19959;-85
2023/09/11 00:35:50;;;;;;;;;;;;;;;23.07;38.78;99103.34;5015888;28;19961;-86
2023/09/11 00:38:15;;;;;;;;;;;;;;;23.05;38.86;99108.00;5032373;28;19919;-86
2023/09/11 00:40:41;;;;;;;;;;;;;;;23.05;38.72;99102.69;5031977;28;19917;-86
2023/09/11 00:43:06;;;;;;;;;;;;;;;23.04;38.62;99105.53;5033741;28;19928;-85
2023/09/11 00:45:31;;;;;;;;;;;;;;;23.05;38.46;99109.84;5033898;28;19920;-85
2023/09/11 00:47:59;;;;;;;;;;;;;;;23.03;38.63;99104.72;5032467;28;20304;-86
2023/09/11 00:50:24;;;;;;;;;;;;;;;23.02;38.61;99110.22;5032362;28;19924;-86
2023/09/11 00:52:49;;;;;;;;;;;;;;;23.00;38.79;99107.75;5032093;28;19935;-85
2023/09/11 00:55:15;;;;;;;;;;;;;;;23.00;38.86;99106.94;5016009;28;19913;-86
2023/09/11 00:57:40;;;;;;;;;;;;;;;23.02;38.73;99105.72;5032159;28;20323;-87
2023/09/11 01:00:06;;;;;;;;;;;;;;;23.01;38.76;99100.59;5032471;28;19948;-87
2023/09/11 01:02:32;;;;;;;;;;;;;;;23.01;39.03;99097.94;5032038;28;20074;-86
2023/09/11 01:04:58;;;;;;;;;;;;;;;22.98;38.97;99096.47;5031964;28;20474;-86
2023/09/11 01:07:24;;;;;;;;;;;;;;;22.97;38.76;99097.47;5032073;28;20377;-86
2023/09/11 01:09:49;;;;;;;;;;;;;;;22.98;38.85;99088.50;5033162;28;19971;-86
2023/09/11 01:12:14;;;;;;;;;;;;;;;23.00;38.87;99083.78;5015445;28;19913;-86
2023/09/11 01:14:40;;;;;;;;;;;;;;;23.02;38.64;99083.63;5031972;28;19913;-84
2023/09/11 01:17:25;;;;;;;;;;;;;;;23.00;38.95;99080.31;5032058;28;20011;-84
2023/09/11 01:20:14;;;;;;;;;;;;;;;22.99;38.78;99091.97;5033576;28;19913;-84
2023/09/11 01:22:56;;;;;;;;;;;;;;;22.95;38.85;99089.69;5032304;28;19945;-84
2023/09/11 01:25:51;;;;;;;;;;;;;;;22.89;38.93;99093.09;5033150;28;20368;-84
2023/09/11 01:28:29;;;;;;;;;;;;;;;22.83;39.14;99085.88;5011592;28;19936;-84
2023/09/11 01:30:54;;;;;;;;;;;;;;;22.82;38.95;99088.72;5012966;28;19921;-84
2023/09/11 01:33:20;;;;;;;;;;;;;;;22.81;39.22;99087.91;4995698;28;19914;-85
2023/09/11 01:35:45;;;;;;;;;;;;;;;22.80;39.28;99088.91;4995237;28;19940;-84
2023/09/11 01:38:10;;;;;;;;;;;;;;;22.79;39.21;99091.75;5013506;28;19920;-85
2023/09/11 01:40:36;;;;;;;;;;;;;;;22.76;39.25;99084.97;5000365;28;20324;-85
2023/09/11 01:43:02;;;;;;;;;;;;;;;22.72;39.09;99089.00;5000134;28;20008;-85
2023/09/11 01:45:27;;;;;;;;;;;;;;;22.69;39.34;99086.72;5015628;28;19942;-84
2023/09/11 01:47:53;;;;;;;;;;;;;;;22.65;39.50;99093.44;4998141;28;19913;-85
2023/09/11 01:50:18;;;;;;;;;;;;;;;22.64;39.20;99094.44;4996985;28;20055;-84
2023/09/11 01:52:44;;;;;;;;;;;;;;;22.65;39.13;99090.78;5010626;28;20020;-85
2023/09/11 01:55:09;;;;;;;;;;;;;;;22.63;39.45;99098.97;4994433;28;19996;-85
2023/09/11 01:57:34;;;;;;;;;;;;;;;22.59;39.43;99089.69;4994638;28;19913;-85
2023/09/11 02:00:00;;;;;;;;;;;;;;;22.58;39.21;99090.69;4997137;28;19929;-87
2023/09/11 02:02:25;;;;;;;;;;;;;;;22.56;39.38;99090.06;4997542;28;19921;-86
2023/09/11 02:04:50;;;;;;;;;;;;;;;22.52;39.58;99086.13;5018680;28;20063;-85
2023/09/11 02:07:15;;;;;;;;;;;;;;;22.48;39.70;99090.16;5036824;28;20372;-85
2023/09/11 02:09:41;;;;;;;;;;;;;;;22.44;39.47;99088.88;5036257;28;19913;-85
2023/09/11 02:12:06;;;;;;;;;;;;;;;22.44;39.40;99088.88;5035139;28;19913;-85
2023/09/11 02:14:31;;;;;;;;;;;;;;;22.43;39.66;99088.06;5018498;28;19920;-85
2023/09/11 02:17:02;;;;;;;;;;;;;;;22.43;39.36;99084.59;5035181;28;19913;-85
2023/09/11 02:19:28;;;;;;;;;;;;;;;22.39;39.35;99081.44;5035337;28;19947;-85
2023/09/11 02:21:53;;;;;;;;;;;;;;;22.35;39.57;99090.81;5036070;28;19924;-86
2023/09/11 02:24:19;;;;;;;;;;;;;;;22.35;39.69;99090.81;5035271;28;19913;-85
2023/09/11 02:26:44;;;;;;;;;;;;;;;22.35;39.43;99088.16;5036102;28;20334;-85
2023/09/11 02:29:09;;;;;;;;;;;;;;;22.33;39.38;99085.69;5035114;28;19913;-85
2023/09/11 02:31:35;;;;;;;;;;;;;;;22.32;39.48;99091.19;5018300;28;20005;-86
2023/09/11 02:34:00;;;;;;;;;;;;;;;22.28;39.49;99088.06;5035120;28;19917;-85
2023/09/11 02:36:25;;;;;;;;;;;;;;;22.26;39.43;99083.91;5018011;28;20379;-85
2023/09/11 02:38:51;;;;;;;;;;;;;;;22.24;39.56;99084.09;5018094;28;19913;-85
2023/09/11 02:41:16;;;;;;;;;;;;;;;22.22;39.45;99086.94;5018054;28;19917;-86
2023/09/11 02:43:41;;;;;;;;;;;;;;;22.18;39.50;99085.66;5034573;28;19956;-85
2023/09/11 02:46:06;;;;;;;;;;;;;;;22.17;39.41;99080.50;5034941;28;19920;-85
2023/09/11 02:48:32;;;;;;;;;;;;;;;22.12;39.58;99083.72;5034333;28;19943;-85
2023/09/11 02:50:58;;;;;;;;;;;;;;;22.10;39.49;99072.44;5033998;28;19913;-85
2023/09/11 02:53:23;;;;;;;;;;;;;;;22.08;39.66;99074.47;5034288;28;19913;-86
2023/09/11 02:55:48;;;;;;;;;;;;;;;22.06;39.78;99071.19;5017692;28;19927;-79
2023/09/11 02:58:13;;;;;;;;;;;;;;;22.04;39.83;99068.72;5035476;28;19916;-84
2023/09/11 03:00:39;;;;;;;;;;;;;;;21.99;39.71;99079.03;5034165;28;19913;-85
2023/09/11 03:03:05;;;;;;;;;;;;;;;21.94;40.03;99073.47;5018088;28;19970;-84
2023/09/11 03:05:33;;;;;;;;;;;;;;;21.94;39.75;99075.31;5034023;28;19913;-85
2023/09/11 03:07:59;;;;;;;;;;;;;;;21.91;40.25;99071.16;5034346;28;20016;-84
2023/09/11 03:10:25;;;;;;;;;;;;;;;21.90;40.22;99064.22;5032768;28;19971;-85
2023/09/11 03:12:50;;;;;;;;;;;;;;;21.88;39.83;99063.56;5033871;28;19917;-84
2023/09/11 03:15:15;;;;;;;;;;;;;;;21.88;39.98;99070.72;5034156;28;19920;-84
2023/09/11 03:17:41;;;;;;;;;;;;;;;21.88;39.97;99068.88;5017351;28;19936;-84
2023/09/11 03:20:07;;;;;;;;;;;;;;;21.87;40.24;99061.91;5037504;28;19920;-84
2023/09/11 03:22:32;;;;;;;;;;;;;;;21.86;39.96;99068.22;5033645;28;19952;-85
2023/09/11 03:24:58;;;;;;;;;;;;;;;21.83;40.34;99065.94;5034279;28;20004;-84
2023/09/11 03:27:23;;;;;;;;;;;;;;;21.81;39.98;99071.44;5033531;28;19964;-77
2023/09/11 03:29:52;;;;;;;;;;;;;;;21.78;39.98;99070.97;5017160;28;19935;-84
2023/09/11 03:32:17;;;;;;;;;;;;;;;21.75;40.34;99071.34;5033728;28;20015;-84
2023/09/11 03:34:42;;;;;;;;;;;;;;;21.77;40.26;99074.63;5033487;28;19959;-84
2023/09/11 03:37:07;;;;;;;;;;;;;;;21.75;40.26;99077.47;5016953;28;19913;-86
2023/09/11 03:39:33;;;;;;;;;;;;;;;21.73;40.32;99074.19;5017077;28;19917;-86
2023/09/11 03:41:58;;;;;;;;;;;;;;;21.72;40.34;99074.34;5016965;28;20011;-84
2023/09/11 03:44:24;;;;;;;;;;;;;;;21.68;40.28;99073.91;5033731;28;19920;-84
2023/09/11 03:46:49;;;;;;;;;;;;;;;21.69;40.25;99080.84;5033981;28;20387;-80
2023/09/11 03:49:14;;;;;;;;;;;;;;;21.79;41.32;99081.44;5034489;28;20396;-81
2023/09/11 03:51:39;;;;;;;;;;;;;;;21.98;41.88;99082.72;5034259;28;19920;-87
2023/09/11 03:54:08;;;;;;;;;;;;;;;22.10;42.04;99079.63;5033891;28;19913;-80
2023/09/11 03:56:34;;;;;;;;;;;;;;;22.28;41.23;99081.88;5033797;28;19959;-79
2023/09/11 03:58:59;;;;;;;;;;;;;;;22.50;41.16;99090.78;5034692;28;19912;-85
2023/09/11 04:01:24;;;;;;;;;;;;;;;22.85;40.02;99086.53;5032919;28;19913;-87
2023/09/11 04:03:50;;;;;;;;;;;;;;;23.50;38.79;99094.56;5033632;28;19913;-78
2023/09/11 04:06:15;;;;;;;;;;;;;;;24.16;37.45;99088.06;5033631;28;19916;-90
2023/09/11 04:08:40;;;;;;;;;;;;;;;24.68;36.26;99081.34;5017451;28;20339;-87
2023/09/11 04:11:06;;;;;;;;;;;;;;;25.28;35.30;99092.19;5034234;28;19924;-82
2023/09/11 04:13:31;;;;;;;;;;;;;;;25.90;34.05;99089.31;5034212;28;20368;-88
2023/09/11 04:15:56;;;;;;;;;;;;;;;26.43;32.99;99087.56;5033881;28;19913;-84
2023/09/11 04:18:21;;;;;;;;;;;;;;;27.15;32.61;99093.59;5032897;28;19960;-85
2023/09/11 04:20:47;;;;;;;;;;;;;;;28.08;31.11;99088.53;5032895;28;19956;-82
2023/09/11 04:23:12;;;;;;;;;;;;;;;28.91;29.95;99086.28;5034081;28;20011;-83
2023/09/11 04:25:37;;;;;;;;;;;;;;;29.82;28.64;99088.84;5032984;28;19913;-78
2023/09/11 04:28:03;;;;;;;;;;;;;;;30.75;27.07;99083.53;5017049;28;19913;-79
2023/09/11 04:30:28;;;;;;;;;;;;;;;31.52;25.46;99091.09;5033625;28;20019;-74
2023/09/11 04:32:53;;;;;;;;;;;;;;;32.18;24.00;99098.59;5033445;28;19921;-74
2023/09/11 04:35:20;;;;;;;;;;;;;;;32.50;23.34;99086.25;5033782;28;19917;-74
2023/09/11 04:37:45;;;;;;;;;;;;;;;32.91;22.48;99087.56;5031818;28;19913;-72
2023/09/11 04:40:10;;;;;;;;;;;;;;;33.18;21.78;99081.34;5029460;28;20342;-73
2023/09/11 04:42:37;;;;;;;;;;;;;;;33.59;21.32;99087.06;5032880;28;20335;-74
2023/09/11 04:45:03;;;;;;;;;;;;;;;33.86;20.84;99089.69;5033272;28;19944;-74
2023/09/11 04:47:32;;;;;;;;;;;;;;;34.20;20.26;99093.94;5032851;28;19913;-73
2023/09/11 04:50:00;;;;;;;;;;;;;;;34.60;20.31;99095.19;5032362;28;19917;-73
2023/09/11 04:52:25;;;;;;;;;;;;;;;34.85;19.91;99091.75;5031708;28;20342;-73
2023/09/11 04:54:51;;;;;;;;;;;;;;;35.21;19.49;99096.41;5033333;28;19913;-74
2023/09/11 04:57:16;;;;;;;;;;;;;;;35.50;19.19;99094.81;5031887;28;19913;-73
2023/09/11 04:59:42;;;;;;;;;;;;;;;35.70;18.85;99095.88;5031662;28;19913;-73
2023/09/11 05:02:10;;;;;;;;;;;;;;;35.92;18.57;99094.78;5032197;28;19963;-74
2023/09/11 05:04:35;;;;;;;;;;;;;;;36.21;18.19;99106.63;5031618;28;19913;-74
2023/09/11 05:07:01;;;;;;;;;;;;;;;36.58;18.04;99101.88;5033055;28;19928;-74
2023/09/11 05:09:26;;;;;;;;;;;;;;;36.66;18.08;99101.28;5032690;28;20359;-73
2023/09/11 05:11:51;;;;;;;;;;;;;;;36.78;17.98;99100.97;5014506;28;19913;-73
2023/09/11 05:14:17;;;;;;;;;;;;;;;37.10;17.08;99094.22;5032897;28;19963;-74
2023/09/11 05:16:42;;;;;;;;;;;;;;;37.33;16.74;99095.44;5032832;28;19917;-73
2023/09/11 05:19:07;;;;;;;;;;;;;;;37.51;17.18;99093.09;5032842;28;20379;-73
2023/09/11 05:21:33;;;;;;;;;;;;;;;37.73;17.08;99092.63;5033058;28;19960;-74
2023/09/11 05:23:58;;;;;;;;;;;;;;;37.98;16.29;99092.34;5032702;28;19989;-73
2023/09/11 05:26:23;;;;;;;;;;;;;;;38.18;16.44;99085.09;5033080;28;19920;-73
2023/09/11 05:28:49;;;;;;;;;;;;;;;38.36;16.01;99095.19;5031414;28;19920;-75
2023/09/11 05:31:14;;;;;;;;;;;;;;;38.54;15.97;99090.06;5032724;28;20038;-73
2023/09/11 05:33:39;;;;;;;;;;;;;;;38.57;15.93;99086.75;5031828;28;19913;-73
2023/09/11 05:36:05;;;;;;;;;;;;;;;38.73;15.64;99087.38;5032790;28;20024;-74
2023/09/11 05:38:30;;;;;;;;;;;;;;;38.79;15.69;99083.44;5032527;28;20011;-73
2023/09/11 05:40:56;;;;;;;;;;;;;;;38.89;16.09;99087.97;5032401;28;19920;-74
2023/09/11 05:43:21;;;;;;;;;;;;;;;39.05;15.57;99088.53;5032336;28;19913;-74
2023/09/11 05:45:46;;;;;;;;;;;;;;;39.13;15.74;99084.34;5031387;28;20399;-74
2023/09/11 05:48:12;;;;;;;;;;;;;;;39.17;15.83;99085.34;5031336;28;19913;-74
2023/09/11 05:50:40;;;;;;;;;;;;;;;39.33;15.49;99092.19;5014959;28;20030;-73
2023/09/11 05:53:08;;;;;;;;;;;;;;;39.31;15.41;99096.31;5031950;28;19913;-74
2023/09/11 05:55:33;;;;;;;;;;;;;;;39.34;15.80;99093.81;5031277;28;19917;-73
2023/09/11 05:57:59;;;;;;;;;;;;;;;39.40;15.65;99094.53;5032486;28;20351;-74
2023/09/11 06:00:26;;;;;;;;;;;;;;;39.52;15.55;99091.31;5030977;28;19917;-74
2023/09/11 06:02:51;;;;;;;;;;;;;;;39.59;15.65;99099.97;5032424;28;19913;-73
2023/09/11 06:05:17;;;;;;;;;;;;;;;39.62;15.38;99105.63;5031002;28;19913;-74
2023/09/11 06:07:42;;;;;;;;;;;;;;;39.65;15.05;99103.41;5031946;28;20019;-73
2023/09/11 06:10:10;;;;;;;;;;;;;;;39.69;15.03;99102.50;5032459;28;20364;-73
2023/09/11 06:12:35;;;;;;;;;;;;;;;39.61;14.96;99106.72;5031165;28;19913;-73
2023/09/11 06:15:02;;;;;;;;;;;;;;;39.59;15.21;99110.88;5032156;28;19913;-74
2023/09/11 06:17:28;;;;;;;;;;;;;;;39.60;14.95;99113.31;5031070;28;20007;-73
2023/09/11 06:19:53;;;;;;;;;;;;;;;39.61;15.11;99114.94;5032108;28;19971;-73
2023/09/11 06:22:18;;;;;;;;;;;;;;;39.51;15.11;99117.81;5031735;28;20318;-73
2023/09/11 06:24:44;;;;;;;;;;;;;;;39.56;15.27;99117.75;5030386;28;19917;-74
2023/09/11 06:27:09;;;;;;;;;;;;;;;39.59;15.21;99124.53;5032328;28;19913;-74
2023/09/11 06:29:34;;;;;;;;;;;;;;;39.60;15.27;99124.25;5030603;28;19913;-74
2023/09/11 06:32:00;;;;;;;;;;;;;;;39.63;15.25;99117.34;5030690;28;19920;-74
2023/09/11 06:34:25;;;;;;;;;;;;;;;39.64;15.18;99127.19;5031089;28;20051;-74
2023/09/11 06:36:53;;;;;;;;;;;;;;;39.67;15.16;99121.13;5030780;28;19917;-74
2023/09/11 06:39:19;;;;;;;;;;;;;;;39.66;15.15;99127.69;5030328;28;19917;-73
2023/09/11 06:41:45;;;;;;;;;;;;;;;39.65;15.27;99126.09;5032175;28;19989;-74
2023/09/11 06:44:10;;;;;;;;;;;;;;;39.55;15.37;99118.88;5030828;28;19956;-73
2023/09/11 06:46:35;;;;;;;;;;;;;;;39.56;15.49;99130.59;5035305;28;19913;-74
2023/09/11 06:49:00;;;;;;;;;;;;;;;39.64;15.33;99129.91;5035489;28;19920;-73
2023/09/11 06:51:26;;;;;;;;;;;;;;;39.59;15.40;99130.81;5035288;28;20007;-74
2023/09/11 06:53:53;;;;;;;;;;;;;;;39.68;15.33;99133.69;5035545;28;19913;-74
2023/09/11 06:56:18;;;;;;;;;;;;;;;39.68;15.38;99133.69;5035098;28;19913;-74
2023/09/11 06:58:45;;;;;;;;;;;;;;;39.68;15.35;99133.69;5035594;28;19917;-72
2023/09/11 07:01:10;;;;;;;;;;;;;;;39.68;15.41;99132.84;5033704;28;19940;-74
2023/09/11 07:03:35;;;;;;;;;;;;;;;39.72;15.60;99137.41;5035390;28;19913;-74
2023/09/11 07:06:02;;;;;;;;;;;;;;;39.72;15.36;99131.16;5035207;28;19971;-74
2023/09/11 07:08:27;;;;;;;;;;;;;;;39.76;15.15;99126.72;5017700;28;19975;-73
2023/09/11 07:10:54;;;;;;;;;;;;;;;39.82;15.19;99130.94;5033243;28;19953;-73
2023/09/11 07:13:19;;;;;;;;;;;;;;;39.92;15.11;99132.69;5033618;28;20284;-74
2023/09/11 07:15:52;;;;;;;;;;;;;;;39.95;14.88;99132.09;5035306;28;19974;-74
2023/09/11 07:18:18;;;;;;;;;;;;;;;40.02;14.43;99126.25;5035059;28;19913;-74
2023/09/11 07:20:46;;;;;;;;;;;;;;;39.97;14.27;99125.22;5035204;28;19913;-73
2023/09/11 07:23:12;;;;;;;;;;;;;;;40.04;14.57;99124.81;5033954;28;19913;-74
2023/09/11 07:25:37;;;;;;;;;;;;;;;40.12;14.58;99126.88;5035173;28;19976;-74
2023/09/11 07:28:03;;;;;;;;;;;;;;;40.27;14.26;99122.19;5034873;28;19919;-74
2023/09/11 07:30:28;;;;;;;;;;;;;;;40.27;13.92;99120.25;5034946;28;19913;-74
2023/09/11 07:32:53;;;;;;;;;;;;;;;40.27;13.87;99122.19;5034851;28;19917;-73
2023/09/11 07:35:19;;;;;;;;;;;;;;;40.31;13.52;99121.28;5034882;28;19939;-75
2023/09/11 07:37:44;;;;;;;;;;;;;;;40.42;13.62;99121.91;5033187;28;20005;-73
2023/09/11 07:40:09;;;;;;;;;;;;;;;40.46;13.77;99122.09;5034677;28;19963;-74
2023/09/11 07:42:36;;;;;;;;;;;;;;;40.49;14.25;99132.44;5033825;28;19913;-74
2023/09/11 07:45:01;;;;;;;;;;;;;;;40.51;14.01;99122.78;5033374;28;19913;-76
2023/09/11 07:47:26;;;;;;;;;;;;;;;40.57;13.88;99126.22;5034431;28;19913;-74
2023/09/11 07:49:53;;;;;;;;;;;;;;;40.63;14.04;99124.22;5033316;28;19913;-73
2023/09/11 07:52:18;;;;;;;;;;;;;;;40.66;13.58;99118.09;5016890;28;19913;-74
2023/09/11 07:54:43;;;;;;;;;;;;;;;40.67;13.96;99126.00;5034498;28;19923;-74
2023/09/11 07:57:09;;;;;;;;;;;;;;;40.79;13.55;99135.63;5033544;28;19913;-73
2023/09/11 07:59:34;;;;;;;;;;;;;;;40.85;13.67;99135.22;5016655;28;20414;-73
2023/09/11 08:01:59;;;;;;;;;;;;;;;40.94;13.24;99127.06;5033311;28;20383;-74
2023/09/11 08:04:24;;;;;;;;;;;;;;;41.04;13.48;99135.03;5016353;28;19920;-73
2023/09/11 08:06:50;;;;;;;;;;;;;;;41.10;13.66;99130.25;5033111;28;19928;-74
2023/09/11 08:09:15;;;;;;;;;;;;;;;41.22;13.09;99118.75;5034403;28;19913;-72
2023/09/11 08:11:40;;;;;;;;;;;;;;;41.39;12.95;99123.56;5033018;28;19913;-74
2023/09/11 08:14:06;;;;;;;;;;;;;;;41.31;13.17;99121.56;5033877;28;19959;-73
2023/09/11 08:16:32;;;;;;;;;;;;;;;41.25;12.48;99111.84;5032887;28;19912;-75
2023/09/11 08:18:57;;;;;;;;;;;;;;;41.26;12.70;99113.44;5034187;28;20296;-75
2023/09/11 08:21:22;;;;;;;;;;;;;;;41.28;12.62;99112.06;5033153;28;19913;-76
2023/09/11 08:23:48;;;;;;;;;;;;;;;41.33;13.05;99117.41;5016125;28;19962;-74
2023/09/11 08:26:13;;;;;;;;;;;;;;;41.34;13.10;99115.44;5032834;28;19913;-73
2023/09/11 08:28:38;;;;;;;;;;;;;;;41.36;12.99;99111.28;5032355;28;20384;-73
2023/09/11 08:31:04;;;;;;;;;;;;;;;41.47;12.87;99102.81;5033628;28;19917;-73
2023/09/11 08:33:29;;;;;;;;;;;;;;;41.49;12.63;99095.09;5032206;28;20371;-74
2023/09/11 08:35:54;;;;;;;;;;;;;;;41.50;12.40;99094.78;5032205;28;19921;-73
2023/09/11 08:38:19;;;;;;;;;;;;;;;41.49;12.42;99092.34;5032467;28;20007;-73
2023/09/11 08:40:45;;;;;;;;;;;;;;;41.48;12.27;99097.03;5032073;28;20209;-74
2023/09/11 08:43:10;;;;;;;;;;;;;;;41.41;12.26;99083.75;5032234;28;19913;-73
2023/09/11 08:45:36;;;;;;;;;;;;;;;41.38;12.23;99087.13;5015596;28;19913;-74
2023/09/11 08:48:02;;;;;;;;;;;;;;;41.39;12.33;99082.47;5032145;28;20004;-74
2023/09/11 08:50:31;;;;;;;;;;;;;;;41.46;12.11;99073.81;5033559;28;19920;-75
2023/09/11 08:52:57;;;;;;;;;;;;;;;41.45;12.32;99072.19;5015423;28;19913;-74
2023/09/11 08:55:23;;;;;;;;;;;;;;;41.38;11.95;99076.16;5033060;28;20004;-75
2023/09/11 08:57:48;;;;;;;;;;;;;;;41.32;11.76;99069.19;5032087;28;20016;-73
2023/09/11 09:00:14;;;;;;;;;;;;;;;41.26;11.46;99066.88;5032001;28;19959;-74
2023/09/11 09:02:39;;;;;;;;;;;;;;;41.27;11.96;99072.06;5031439;28;19913;-73
2023/09/11 09:05:05;;;;;;;;;;;;;;;41.25;11.91;99059.81;5033115;28;19913;-74
2023/09/11 09:07:31;;;;;;;;;;;;;;;41.13;11.71;99061.16;5014549;28;19920;-75
2023/09/11 09:09:56;;;;;;;;;;;;;;;41.09;12.15;99057.47;5014852;28;20287;-75
2023/09/11 09:12:21;;;;;;;;;;;;;;;41.08;12.11;99046.81;5031658;28;19913;-74
2023/09/11 09:14:48;;;;;;;;;;;;;;;40.87;12.26;99052.78;5032975;28;19913;-75
2023/09/11 09:17:14;;;;;;;;;;;;;;;40.68;12.21;99052.94;5032917;28;19956;-74
2023/09/11 09:19:39;;;;;;;;;;;;;;;40.44;12.01;99053.22;5033239;28;20003;-75
2023/09/11 09:22:05;;;;;;;;;;;;;;;40.11;11.76;99051.44;5032843;28;19996;-75
2023/09/11 09:24:37;;;;;;;;;;;;;;;39.91;12.08;99044.41;5032816;28;20007;-74
2023/09/11 09:27:03;;;;;;;;;;;;;;;39.64;12.58;99056.16;5014938;28;20368;-75
2023/09/11 09:29:35;;;;;;;;;;;;;;;39.59;12.80;99050.81;5032842;28;19913;-74
2023/09/11 09:32:01;;;;;;;;;;;;;;;39.45;12.61;99042.56;5032709;28;19913;-74
2023/09/11 09:34:26;;;;;;;;;;;;;;;39.35;12.87;99040.03;5015240;28;20315;-74
2023/09/11 09:36:54;;;;;;;;;;;;;;;39.16;12.68;99038.16;5031214;28;19917;-75
2023/09/11 09:39:19;;;;;;;;;;;;;;;39.06;12.40;99035.56;5032993;28;19913;-75
2023/09/11 09:41:54;;;;;;;;;;;;;;;38.82;12.59;99027.50;5014854;28;19913;-74
2023/09/11 09:44:28;;;;;;;;;;;;;;;38.68;12.85;99025.53;5032573;28;19913;-75
2023/09/11 09:46:53;;;;;;;;;;;;;;;38.48;12.94;99026.59;5032910;28;19955;-73
2023/09/11 09:49:20;;;;;;;;;;;;;;;38.36;13.15;99027.03;5032468;28;20358;-73
2023/09/11 09:51:46;;;;;;;;;;;;;;;38.11;13.25;99028.19;5032292;28;19917;-73
2023/09/11 09:54:11;;;;;;;;;;;;;;;38.05;13.02;99023.91;5032663;28;19913;-74
2023/09/11 09:56:36;;;;;;;;;;;;;;;37.78;13.41;99021.75;5014769;28;20269;-74
2023/09/11 09:59:02;;;;;;;;;;;;;;;37.65;13.50;99015.91;5031299;28;19963;-75
2023/09/11 10:01:27;;;;;;;;;;;;;;;37.45;13.51;99013.41;5031137;28;20441;-74
2023/09/11 10:03:53;;;;;;;;;;;;;;;37.28;13.17;99014.63;5030993;28;19913;-76
2023/09/11 10:06:18;;;;;;;;;;;;;;;37.12;13.16;99011.22;5031542;28;19920;-77
2023/09/11 10:08:44;;;;;;;;;;;;;;;37.04;12.71;99006.38;5031003;28;20368;-75
2023/09/11 10:11:28;;;;;;;;;;;;;;;36.92;13.30;99004.03;5031195;28;19963;-75
2023/09/11 10:13:55;;;;;;;;;;;;;;;36.70;13.08;99003.63;5031314;28;20004;-75
2023/09/11 10:16:20;;;;;;;;;;;;;;;36.51;13.30;99000.78;5031576;28;20284;-73
2023/09/11 10:18:45;;;;;;;;;;;;;;;36.28;13.45;98999.56;5030940;28;19927;-74
2023/09/11 10:21:11;;;;;;;;;;;;;;;36.22;13.49;99002.28;5033935;28;19917;-75
2023/09/11 10:23:37;;;;;;;;;;;;;;;36.05;13.65;98993.66;5036277;28;19913;-74
2023/09/11 10:26:03;;;;;;;;;;;;;;;35.84;13.79;98995.66;5036058;28;19913;-74
2023/09/11 10:28:32;;;;;;;;;;;;;;;35.68;13.59;98997.59;5035008;28;19979;-75
2023/09/11 10:30:58;;;;;;;;;;;;;;;35.54;13.71;98991.94;5018081;28;19956;-74
2023/09/11 10:33:25;;;;;;;;;;;;;;;35.35;14.06;98986.28;5017682;28;20426;-75
2023/09/11 10:35:51;;;;;;;;;;;;;;;35.24;14.08;98985.44;5035847;28;19917;-76
2023/09/11 10:38:17;;;;;;;;;;;;;;;35.15;14.07;98977.06;5034838;28;19913;-74
2023/09/11 10:40:42;;;;;;;;;;;;;;;35.13;14.67;98983.84;5034667;28;19913;-74
2023/09/11 10:43:07;;;;;;;;;;;;;;;35.10;14.48;98974.31;5034831;28;20410;-75
2023/09/11 10:45:33;;;;;;;;;;;;;;;35.06;14.70;98977.84;5034440;28;19913;-73
2023/09/11 10:47:59;;;;;;;;;;;;;;;34.88;14.45;98973.81;5035590;28;19913;-72
2023/09/11 10:50:24;;;;;;;;;;;;;;;34.73;14.13;98971.91;5034439;28;19924;-74
2023/09/11 10:52:55;;;;;;;;;;;;;;;34.54;14.50;98975.13;5034422;28;19913;-73
2023/09/11 10:55:21;;;;;;;;;;;;;;;34.35;14.37;98974.81;5034597;28;20387;-75
2023/09/11 10:57:46;;;;;;;;;;;;;;;34.30;14.84;98969.41;5033492;28;19920;-76
2023/09/11 11:00:12;;;;;;;;;;;;;;;34.16;14.61;98965.50;5034213;28;19912;-75
2023/09/11 11:02:37;;;;;;;;;;;;;;;34.01;14.67;98958.97;5034275;28;20418;-73
2023/09/11 11:05:03;;;;;;;;;;;;;;;33.88;14.54;98960.28;5017421;28;20398;-74
2023/09/11 11:07:28;;;;;;;;;;;;;;;33.71;14.85;98959.66;5033867;28;19921;-74
2023/09/11 11:09:54;;;;;;;;;;;;;;;33.58;14.97;98952.81;5036076;28;19916;-76
2023/09/11 11:12:32;;;;;;;;;;;;;;;33.45;14.98;98950.59;5017488;28;20361;-75
2023/09/11 11:15:16;;;;;;;;;;;;;;;33.33;17.64;98945.38;5017210;28;19913;-75
2023/09/11 11:17:41;;;;;;;;;;;;;;;33.20;18.52;98940.44;5033992;28;19913;-77
2023/09/11 11:20:07;;;;;;;;;;;;;;;33.00;18.82;98936.47;5017027;28;20005;-77
2023/09/11 11:22:33;;;;;;;;;;;;;;;32.86;19.36;98935.28;5033500;28;19959;-76
2023/09/11 11:24:59;;;;;;;;;;;;;;;32.67;19.19;98942.97;5033742;28;19952;-77
2023/09/11 11:27:24;;;;;;;;;;;;;;;32.43;18.38;98932.47;5017430;28;19921;-76
2023/09/11 11:29:49;;;;;;;;;;;;;;;32.24;18.57;98932.81;5033206;28;20410;-75
2023/09/11 11:32:15;;;;;;;;;;;;;;;32.09;18.65;98921.88;5015815;28;19913;-75
2023/09/11 11:34:41;;;;;;;;;;;;;;;31.93;17.88;98918.97;5033562;28;19913;-76
2023/09/11 11:37:06;;;;;;;;;;;;;;;31.79;18.54;98925.81;5033777;28;19917;-76
2023/09/11 11:39:34;;;;;;;;;;;;;;;31.62;18.80;98916.97;5033632;28;19913;-76
2023/09/11 11:42:02;;;;;;;;;;;;;;;31.48;19.32;98917.28;5016864;28;20281;-75
2023/09/11 11:44:29;;;;;;;;;;;;;;;31.35;17.12;98912.28;5033443;28;20364;-74
2023/09/11 11:46:54;;;;;;;;;;;;;;;31.20;17.60;98916.41;5033441;28;19974;-73
2023/09/11 11:49:20;;;;;;;;;;;;;;;31.08;18.74;98910.28;5033103;28;19995;-74
2023/09/11 11:51:45;;;;;;;;;;;;;;;31.03;19.02;98916.41;5033296;28;20341;-73
2023/09/11 11:54:31;;;;;;;;;;;;;;;30.94;18.19;98904.38;5034973;28;19920;-75
2023/09/11 11:56:57;;;;;;;;;;;;;;;30.88;18.79;98904.56;5033938;28;19994;-75
2023/09/11 11:59:22;;;;;;;;;;;;;;;30.80;18.50;98901.19;5033094;28;20015;-75
2023/09/11 12:01:47;;;;;;;;;;;;;;;30.74;18.76;98902.22;5032654;28;19912;-76
2023/09/11 12:04:13;;;;;;;;;;;;;;;30.67;18.98;98896.16;5016535;28;19920;-75
2023/09/11 12:06:38;;;;;;;;;;;;;;;30.59;18.18;98885.78;5032852;28;20024;-75
2023/09/11 12:09:03;;;;;;;;;;;;;;;30.56;18.07;98888.97;5016262;28;19917;-75
2023/09/11 12:11:30;;;;;;;;;;;;;;;30.51;18.25;98883.50;5016108;28;19919;-73
2023/09/11 12:13:56;;;;;;;;;;;;;;;30.47;18.05;98878.59;5032897;28;20295;-74
2023/09/11 12:16:21;;;;;;;;;;;;;;;30.38;17.83;98889.97;5032751;28;20003;-75
2023/09/11 12:18:46;;;;;;;;;;;;;;;30.36;17.48;98881.31;5032664;28;19913;-75
2023/09/11 12:21:11;;;;;;;;;;;;;;;30.38;18.13;98881.88;5033011;28;19913;-74
2023/09/11 12:23:37;;;;;;;;;;;;;;;30.31;17.68;98879.34;5016205;28;19913;-77
2023/09/11 12:26:02;;;;;;;;;;;;;;;30.31;18.54;98879.34;5016067;28;19953;-75
2023/09/11 12:28:28;;;;;;;;;;;;;;;30.30;18.77;98875.84;5032416;28;19921;-78
2023/09/11 12:30:53;;;;;;;;;;;;;;;30.29;18.48;98873.41;5032653;28;20327;-75
2023/09/11 12:33:23;;;;;;;;;;;;;;;30.23;17.89;98874.38;5015683;28;20330;-74
2023/09/11 12:35:51;;;;;;;;;;;;;;;30.22;17.82;98878.94;5032614;28;19955;-76
2023/09/11 12:38:17;;;;;;;;;;;;;;;30.23;18.64;98869.78;5033948;28;19916;-75
2023/09/11 12:40:42;;;;;;;;;;;;;;;30.26;18.48;98869.31;5032428;28;20481;-71
2023/09/11 12:43:08;;;;;;;;;;;;;;;30.25;18.31;98866.84;5031930;28;19919;-77